Time;durP1;ratioP1;P1;durP2;ratioP2;P2;SDS_P1;SDS_P2;PMS_P1;PMS_P2;Temp;Humidity;BMP_temperature;BMP_pressure;BME280_temperature;BME280_humidity;BME280_pressure;Samples;Min_cycle;Max_cycle;Signal;HPM_P1;HPM_P2
2022/07/03 00:02:21;;;;;;;5.67;2.22;;;;;;;27.23;49.67;102004.16;1734192;81;21027;-51
2022/07/03 00:04:48;;;;;;;3.33;2.17;;;;;;;27.23;49.78;101994.80;1733780;81;21043;-51
2022/07/03 00:07:15;;;;;;;5.05;2.70;;;;;;;27.23;49.73;101996.13;1732966;81;21070;-49
2022/07/03 00:09:42;;;;;;;4.22;2.40;;;;;;;27.23;49.73;101994.80;1733976;81;21043;-49
2022/07/03 00:12:09;;;;;;;3.60;2.67;;;;;;;27.26;49.57;101997.27;1747418;80;21011;-49
2022/07/03 00:14:36;;;;;;;2.70;2.50;;;;;;;27.29;49.38;102000.17;1742862;81;21015;-49
2022/07/03 00:17:04;;;;;;;3.35;2.67;;;;;;;27.30;49.46;101996.08;1700944;84;21022;-51
2022/07/03 00:19:31;;;;;;;5.40;2.65;;;;;;;27.32;49.37;101994.15;1735401;81;21015;-49
2022/07/03 00:22:04;;;;;;;3.08;2.77;;;;;;;27.34;49.35;101989.58;1733934;81;21074;-51
2022/07/03 00:24:51;;;;;;;3.27;2.58;;;;;;;27.35;49.50;101984.59;1735312;81;21511;-50
2022/07/03 00:27:19;;;;;;;3.50;2.65;;;;;;;27.35;49.82;101985.92;1645308;86;21058;-50
2022/07/03 00:29:47;;;;;;;5.25;2.50;;;;;;;27.33;50.10;101983.81;1697480;83;21026;-52
2022/07/03 00:32:21;;;;;;;4.62;2.77;;;;;;;27.32;50.26;101982.13;1694800;84;21061;-51
2022/07/03 00:34:50;;;;;;;6.15;2.42;;;;;;;27.31;50.36;101975.52;1695007;84;21093;-50
2022/07/03 00:37:17;;;;;;;4.05;2.75;;;;;;;27.30;50.42;101980.04;1694878;83;21050;-49
2022/07/03 00:39:44;;;;;;;5.62;3.10;;;;;;;27.26;50.45;101975.88;1684259;83;21054;-52
2022/07/03 00:42:11;;;;;;;5.80;2.80;;;;;;;27.26;50.40;101972.34;1692756;83;21530;-49
2022/07/03 00:44:54;;;;;;;5.22;2.62;;;;;;;27.25;50.32;101972.83;1695091;83;21157;-49
2022/07/03 00:47:23;;;;;;;4.50;2.95;;;;;;;27.26;50.15;101969.67;1640943;86;21559;-51
2022/07/03 00:49:52;;;;;;;7.08;2.77;;;;;;;27.25;49.90;101967.48;1640788;86;21066;-54
2022/07/03 00:52:22;;;;;;;7.53;3.08;;;;;;;27.24;49.64;101967.09;1639962;86;21114;-50
2022/07/03 00:54:57;;;;;;;3.43;2.70;;;;;;;27.23;49.40;101965.41;1644467;86;21665;-50
2022/07/03 00:57:26;;;;;;;5.62;2.80;;;;;;;27.22;49.34;101952.98;1638750;86;21360;-50
2022/07/03 00:59:53;;;;;;;3.65;3.17;;;;;;;27.22;49.33;101954.83;1640853;86;21100;-52
2022/07/03 01:02:51;;;;;;;5.58;3.00;;;;;;;27.19;49.27;101955.90;1640633;87;21025;-53
2022/07/03 01:05:40;;;;;;;3.98;2.70;;;;;;;27.17;49.21;101948.95;1638067;86;21078;-48
2022/07/03 01:08:21;;;;;;;3.05;2.58;;;;;;;27.13;49.12;101949.66;1638619;86;21045;-50
2022/07/03 01:10:51;;;;;;;;;;;;;;;27.08;49.10;101947.79;1648342;86;21085;-51
2022/07/03 01:13:35;;;;;;;11.33;3.25;;;;;;;27.05;49.00;101949.84;1640162;87;20112;-50
2022/07/03 01:16:18;;;;;;;4.97;3.62;;;;;;;27.01;49.07;101946.55;1629315;86;21023;-49
2022/07/03 01:18:51;;;;;;;4.00;2.90;;;;;;;26.97;49.06;101947.72;1638645;86;21648;-51
2022/07/03 01:21:50;;;;;;;4.37;2.75;;;;;;;26.95;48.89;101948.80;1639610;86;21590;-50
2022/07/03 01:24:39;;;;;;;6.85;2.70;;;;;;;26.93;48.63;101948.91;1686117;83;21109;-52
2022/07/03 01:27:10;;;;;;;7.10;3.05;;;;;;;26.89;48.24;101944.75;1693782;83;21071;-49
2022/07/03 01:29:54;;;;;;;5.70;2.60;;;;;;;26.86;48.09;101948.09;1662600;85;21090;-50
2022/07/03 01:32:23;;;;;;;5.80;3.02;;;;;;;26.80;47.81;101942.72;1622349;87;21082;-50
2022/07/03 01:34:53;;;;;;;4.30;2.80;;;;;;;26.77;47.62;101948.27;1620011;87;21105;-54
2022/07/03 01:37:22;;;;;;;4.47;2.90;;;;;;;26.71;47.39;101942.49;1625039;87;21139;-51
2022/07/03 01:39:52;;;;;;;4.83;2.80;;;;;;;26.67;47.14;101944.50;1626285;87;21057;-50
2022/07/03 01:42:19;;;;;;;5.78;3.10;;;;;;;26.62;47.46;101945.32;1622632;87;21534;-49
2022/07/03 01:44:47;;;;;;;3.12;2.75;;;;;;;26.59;47.39;101946.85;1620190;87;21122;-49
2022/07/03 01:47:15;;;;;;;3.17;2.80;;;;;;;26.54;47.19;101943.16;1609858;88;21066;-52
2022/07/03 01:49:42;;;;;;;3.33;2.65;;;;;;;26.51;46.96;101941.20;1616376;87;21117;-50
2022/07/03 01:52:10;;;;;;;2.62;2.40;;;;;;;26.49;46.81;101935.98;1615095;87;21590;-49
2022/07/03 01:54:39;;;;;;;3.20;2.67;;;;;;;26.48;46.39;101939.59;1614600;87;21058;-49
2022/07/03 01:57:06;;;;;;;4.35;2.62;;;;;;;26.46;46.28;101935.34;1614640;87;21074;-53
2022/07/03 01:59:35;;;;;;;5.53;2.58;;;;;;;26.45;46.08;101933.62;1614972;87;21062;-49
2022/07/03 02:02:16;;;;;;;2.77;2.58;;;;;;;26.42;45.96;101932.52;1614826;87;21118;-48
2022/07/03 02:04:52;;;;;;;5.50;2.52;;;;;;;26.40;46.15;101929.06;1606776;87;21094;-51
2022/07/03 02:07:30;;;;;;;7.70;2.80;;;;;;;26.36;46.09;101925.77;1615783;87;22291;-49
2022/07/03 02:10:09;;;;;;;3.65;2.87;;;;;;;26.32;46.07;101928.27;1633250;86;21496;-49
2022/07/03 02:12:48;;;;;;;6.47;2.90;;;;;;;26.29;46.07;101925.83;1678490;84;21549;-49
2022/07/03 02:15:20;;;;;;;5.80;2.77;;;;;;;26.26;46.32;101926.50;1657241;84;21547;-49
2022/07/03 02:17:48;;;;;;;3.10;2.50;;;;;;;26.23;46.58;101918.72;1680175;84;21546;-50
2022/07/03 02:20:16;;;;;;;6.30;3.37;;;;;;;26.19;46.77;101919.42;1685831;84;21035;-48
2022/07/03 02:22:54;;;;;;;4.33;3.30;;;;;;;26.19;47.03;101921.23;1684343;84;21038;-50
2022/07/03 02:25:27;;;;;;;4.37;2.75;;;;;;;26.18;47.17;101920.84;1687840;82;21674;-55
2022/07/03 02:28:29;;;;;;;3.25;2.92;;;;;;;26.17;47.27;101917.81;1690757;84;21054;-50
2022/07/03 02:30:59;;;;;;;7.72;3.45;;;;;;;26.18;47.33;101916.84;1623290;88;21153;-51
2022/07/03 02:33:27;;;;;;;6.28;3.05;;;;;;;26.18;47.49;101917.70;1627916;88;21046;-50
2022/07/03 02:35:55;;;;;;;3.95;3.15;;;;;;;26.20;47.53;101917.58;1627858;88;21038;-49
2022/07/03 02:38:22;;;;;;;4.20;3.20;;;;;;;26.18;47.60;101919.50;1622999;88;21617;-49
2022/07/03 02:41:05;;;;;;;4.20;3.33;;;;;;;26.18;47.80;101920.36;1627679;88;21062;-49
2022/07/03 02:43:53;;;;;;;4.15;3.17;;;;;;;26.17;47.96;101915.97;1627389;88;21027;-49
2022/07/03 02:49:37;;;;;;;8.25;3.17;;;;;;;26.15;48.60;101916.56;1605610;89;21130;-49
2022/07/03 02:52:24;;;;;;;9.73;2.77;;;;;;;26.15;48.99;101920.56;1596267;89;21046;-53
2022/07/03 02:54:52;;;;;;;3.47;3.15;;;;;;;26.16;49.35;101921.42;1579079;91;21130;-49
2022/07/03 02:57:19;;;;;;;3.72;3.20;;;;;;;26.16;49.58;101916.95;1579053;91;21585;-52
2022/07/03 02:59:59;;;;;;;3.22;2.92;;;;;;;26.18;49.91;101923.03;1580956;91;21133;-49
2022/07/03 03:02:54;;;;;;;4.87;3.40;;;;;;;26.21;50.20;101917.97;1581124;91;21106;-49
2022/07/03 03:05:31;;;;;;;5.47;3.33;;;;;;;26.23;50.63;101918.72;1579835;91;21098;-52
2022/07/03 03:08:31;;;;;;;4.55;3.40;;;;;;;26.26;51.20;101917.16;1603356;88;21073;-51
2022/07/03 03:11:08;;;;;;;4.25;3.02;;;;;;;26.29;51.63;101918.30;1617918;88;21061;-50
2022/07/03 03:13:35;;;;;;;5.85;3.47;;;;;;;26.33;52.20;101921.99;1624030;88;21038;-48
2022/07/03 03:16:11;;;;;;;4.72;3.60;;;;;;;26.37;52.50;101918.15;1631277;88;21071;-48
2022/07/03 03:18:40;;;;;;;5.65;3.83;;;;;;;26.41;52.81;101921.45;1575987;90;21080;-50
2022/07/03 03:21:10;;;;;;;5.65;2.67;;;;;;;26.47;53.08;101926.36;1575919;90;21079;-51
2022/07/03 03:23:52;;;;;;;4.92;3.33;;;;;;;26.52;53.17;101921.56;1522005;94;21086;-48
2022/07/03 03:26:24;;;;;;;5.30;3.47;;;;;;;26.58;53.32;101927.81;1521712;94;21115;-49
2022/07/03 03:28:51;;;;;;;5.60;3.17;;;;;;;26.63;53.45;101930.52;1522351;94;21138;-50
2022/07/03 03:31:18;;;;;;;4.25;2.85;;;;;;;26.69;53.58;101933.73;1527406;94;21137;-52
2022/07/03 03:33:47;;;;;;;5.58;3.45;;;;;;;26.73;53.73;101926.74;1527742;94;21042;-53
2022/07/03 03:36:18;;;;;;;5.20;3.30;;;;;;;26.78;53.84;101931.30;1527715;94;21088;-50
2022/07/03 03:38:45;;;;;;;4.42;3.45;;;;;;;26.85;54.16;101926.38;1481931;97;21099;-48
2022/07/03 03:41:13;;;;;;;4.30;3.22;;;;;;;26.90;54.52;101933.09;1481506;97;21112;-52
2022/07/03 03:43:39;;;;;;;4.65;2.95;;;;;;;27.00;54.92;101928.79;1480614;96;21584;-50
2022/07/03 03:46:06;;;;;;;4.12;2.72;;;;;;;27.16;55.04;101929.39;1485660;96;21138;-50
2022/07/03 03:48:34;;;;;;;4.65;3.10;;;;;;;27.47;54.84;101925.34;1482925;97;21114;-50
2022/07/03 03:51:01;;;;;;;3.25;2.83;;;;;;;27.95;53.81;101923.50;1487860;96;21644;-48
2022/07/03 03:53:29;;;;;;;3.10;2.72;;;;;;;28.65;51.97;101925.17;1516385;94;21069;-51
2022/07/03 03:56:03;;;;;;;5.60;2.83;;;;;;;29.43;50.01;101921.11;1515983;94;21531;-49
2022/07/03 03:58:32;;;;;;;6.55;3.22;;;;;;;30.24;47.91;101924.90;1480785;97;21279;-49
2022/07/03 04:01:00;;;;;;;6.28;3.50;;;;;;;31.07;45.81;101926.13;1454415;98;21132;-52
2022/07/03 04:03:28;;;;;;;8.23;5.45;;;;;;;31.78;44.40;101930.38;1451011;98;21148;-49
2022/07/03 04:05:55;;;;;;;8.45;6.35;;;;;;;32.29;43.30;101933.62;1455130;97;21104;-48
2022/07/03 04:08:23;;;;;;;11.22;6.67;;;;;;;32.57;42.48;101930.50;1453065;98;21555;-50
2022/07/03 04:10:50;;;;;;;10.48;6.92;;;;;;;32.65;41.92;101930.61;1456960;98;21116;-49
2022/07/03 04:13:19;;;;;;;10.35;6.12;;;;;;;32.54;41.57;101929.47;1454715;98;21694;-49
2022/07/03 04:15:48;;;;;;;10.00;6.65;;;;;;;32.33;41.64;101933.68;1464850;97;21624;-56
2022/07/03 04:18:15;;;;;;;7.65;5.65;;;;;;;32.09;41.57;101927.40;1425673;100;21192;-49
2022/07/03 04:20:42;;;;;;;9.18;5.40;;;;;;;31.83;41.67;101932.99;1449021;97;21112;-49
2022/07/03 04:23:08;;;;;;;10.40;5.60;;;;;;;31.60;41.85;101932.91;1463364;97;21084;-51
2022/07/03 04:25:35;;;;;;;10.85;6.28;;;;;;;31.36;41.99;101929.73;1491291;95;21202;-48
2022/07/03 04:28:03;;;;;;;7.50;5.33;;;;;;;31.13;42.36;101930.47;1491171;95;21682;-52
2022/07/03 04:30:30;;;;;;;6.33;4.67;;;;;;;30.90;42.45;101933.00;1462713;97;21080;-49
2022/07/03 04:32:57;;;;;;;8.38;4.75;;;;;;;30.69;42.64;101939.37;1463346;96;21068;-48
2022/07/03 04:35:24;;;;;;;7.03;4.47;;;;;;;30.48;43.06;101934.89;1484106;93;21096;-50
2022/07/03 04:37:50;;;;;;;5.87;4.53;;;;;;;30.30;43.40;101933.80;1571125;91;21062;-49
2022/07/03 04:40:17;;;;;;;7.35;4.40;;;;;;;30.13;43.94;101937.03;1558430;91;21053;-52
2022/07/03 04:42:44;;;;;;;7.28;3.65;;;;;;;29.98;44.34;101934.81;1564515;91;21133;-50
2022/07/03 04:45:11;;;;;;;5.33;3.60;;;;;;;29.86;44.86;101939.88;1568127;91;21106;-53
2022/07/03 04:47:38;;;;;;;5.08;3.50;;;;;;;29.73;45.17;101938.70;1570329;89;21046;-50
2022/07/03 04:50:07;;;;;;;6.80;3.47;;;;;;;29.62;45.51;101942.24;1563955;90;21105;-48
2022/07/03 04:52:34;;;;;;;5.60;3.70;;;;;;;29.53;45.79;101944.84;1568086;90;21050;-49
2022/07/03 04:55:02;;;;;;;3.70;3.10;;;;;;;29.44;46.06;101946.93;1594169;86;21054;-48
2022/07/03 04:57:29;;;;;;;5.45;3.33;;;;;;;29.38;46.43;101949.64;1649547;86;21077;-52
2022/07/03 04:59:55;;;;;;;4.35;3.02;;;;;;;29.34;46.53;101937.94;1649529;86;21443;-49
2022/07/03 05:02:23;;;;;;;6.10;3.27;;;;;;;29.31;46.68;101938.17;1653475;86;21014;-51
2022/07/03 05:04:49;;;;;;;5.78;2.83;;;;;;;29.32;46.94;101939.89;1648013;86;21062;-49
2022/07/03 05:07:17;;;;;;;4.17;2.90;;;;;;;29.33;47.05;101944.27;1651359;86;21089;-49
2022/07/03 05:09:44;;;;;;;4.20;2.92;;;;;;;29.39;46.95;101938.39;1650349;86;21061;-51
2022/07/03 05:12:12;;;;;;;4.62;2.95;;;;;;;29.51;46.91;101940.92;1646446;86;21018;-53
2022/07/03 05:14:38;;;;;;;4.22;3.17;;;;;;;29.70;46.72;101938.91;1676118;83;21093;-50
2022/07/03 05:17:06;;;;;;;3.20;2.47;;;;;;;29.95;46.13;101943.97;1745835;80;20991;-49
2022/07/03 05:19:32;;;;;;;3.83;3.00;;;;;;;30.23;45.49;101943.31;1746659;80;21046;-52
2022/07/03 05:21:59;;;;;;;4.40;2.87;;;;;;;30.53;44.99;101944.76;1745810;80;21042;-51
2022/07/03 05:24:26;;;;;;;3.62;2.20;;;;;;;30.86;44.36;101941.47;1746658;80;21514;-48
2022/07/03 05:26:53;;;;;;;3.33;2.60;;;;;;;31.20;43.68;101944.22;1747143;80;21514;-51
2022/07/03 05:29:20;;;;;;;2.83;2.50;;;;;;;31.54;42.86;101939.34;1749577;80;20990;-50
2022/07/03 05:31:46;;;;;;;4.75;2.98;;;;;;;31.88;42.07;101942.00;1749355;80;21057;-53
2022/07/03 05:34:13;;;;;;;4.28;2.70;;;;;;;32.15;41.46;101945.33;1713694;83;21026;-52
2022/07/03 05:36:40;;;;;;;3.67;2.92;;;;;;;32.33;41.11;101942.25;1715075;83;21521;-50
2022/07/03 05:41:52;;;;;;;4.25;2.65;;;;;;;32.50;40.75;101945.05;1711887;83;21490;-51
2022/07/03 05:44:19;;;;;;;4.80;2.98;;;;;;;32.53;40.63;101947.97;1716576;83;20993;-51
2022/07/03 05:46:45;;;;;;;4.37;3.10;;;;;;;32.53;40.77;101952.00;1712201;83;21479;-49
2022/07/03 05:49:12;;;;;;;4.47;2.62;;;;;;;32.54;40.63;101949.68;1706699;83;21053;-50
2022/07/03 05:51:39;;;;;;;3.22;2.87;;;;;;;32.56;40.38;101951.73;1705296;83;21593;-51
2022/07/03 05:54:06;;;;;;;4.05;2.60;;;;;;;32.55;40.57;101950.02;1705794;83;21026;-53
2022/07/03 05:56:33;;;;;;;4.53;2.98;;;;;;;32.55;40.40;101954.91;1705437;83;21513;-52
2022/07/03 05:59:00;;;;;;;5.83;3.00;;;;;;;32.55;40.26;101955.41;1705661;83;21077;-51
2022/07/03 06:01:27;;;;;;;5.67;3.10;;;;;;;32.56;40.40;101958.47;1708309;83;21037;-52
2022/07/03 06:03:54;;;;;;;5.45;3.08;;;;;;;32.59;40.42;101964.89;1744334;81;21038;-51
2022/07/03 06:06:21;;;;;;;5.17;3.40;;;;;;;32.65;40.56;101960.27;1743150;81;21514;-53
2022/07/03 06:08:48;;;;;;;4.08;3.30;;;;;;;32.77;39.90;101963.13;1742047;81;21074;-53
2022/07/03 06:11:15;;;;;;;3.87;3.15;;;;;;;32.92;39.78;101961.66;1740328;82;21027;-54
2022/07/03 06:13:42;;;;;;;4.12;3.20;;;;;;;33.06;39.52;101957.63;1703953;83;21038;-49
2022/07/03 06:16:09;;;;;;;6.37;3.40;;;;;;;33.16;39.17;101952.55;1710872;83;21014;-52
2022/07/03 06:18:36;;;;;;;5.37;3.50;;;;;;;33.21;38.82;101962.39;1707544;83;21538;-49
2022/07/03 06:21:03;;;;;;;5.37;3.30;;;;;;;33.25;38.21;101953.00;1705458;83;21028;-51
2022/07/03 06:23:30;;;;;;;10.00;4.12;;;;;;;33.35;37.87;101952.93;1705981;83;21034;-52
2022/07/03 06:25:57;;;;;;;3.77;3.40;;;;;;;33.52;37.43;101948.95;1705516;83;21562;-52
2022/07/03 06:28:24;;;;;;;4.97;3.58;;;;;;;33.79;36.82;101953.92;1705632;83;21025;-50
2022/07/03 06:30:51;;;;;;;5.10;3.40;;;;;;;34.06;36.25;101955.22;1707238;83;21073;-51
2022/07/03 06:33:18;;;;;;;4.65;3.75;;;;;;;34.35;35.88;101956.64;1744453;81;21522;-51
2022/07/03 06:35:47;;;;;;;4.53;3.58;;;;;;;34.60;35.29;101959.02;1708470;83;21030;-49
2022/07/03 06:38:14;;;;;;;4.83;3.00;;;;;;;34.72;34.99;101958.23;1740232;81;21089;-50
2022/07/03 06:40:40;;;;;;;4.25;3.30;;;;;;;34.70;34.75;101955.70;1742041;82;21086;-51
2022/07/03 06:43:07;;;;;;;6.83;3.30;;;;;;;34.62;35.10;101954.80;1695874;83;21018;-51
2022/07/03 06:45:34;;;;;;;5.50;3.22;;;;;;;34.46;34.58;101947.92;1704385;83;21112;-49
2022/07/03 06:48:01;;;;;;;3.65;2.80;;;;;;;34.28;34.72;101950.66;1736980;81;21487;-55
2022/07/03 06:50:28;;;;;;;5.45;3.33;;;;;;;34.09;34.86;101945.43;1734079;81;21015;-50
2022/07/03 06:52:55;;;;;;;3.27;2.47;;;;;;;33.89;35.23;101942.54;1733947;81;21019;-49
2022/07/03 06:55:22;;;;;;;4.17;2.22;;;;;;;33.71;35.26;101943.05;1732971;81;21019;-50
2022/07/03 06:57:49;;;;;;;3.25;2.10;;;;;;;33.54;35.12;101945.59;1733952;81;21035;-51
2022/07/03 07:00:16;;;;;;;3.40;2.05;;;;;;;33.41;35.46;101947.78;1733294;81;21038;-52
2022/07/03 07:02:43;;;;;;;6.03;2.05;;;;;;;33.32;35.09;101942.45;1736107;81;21531;-50
2022/07/03 07:05:10;;;;;;;2.20;1.87;;;;;;;33.24;35.50;101947.77;1700906;84;20995;-50
2022/07/03 07:07:36;;;;;;;2.00;1.70;;;;;;;33.16;35.40;101945.80;1735450;81;21034;-49
2022/07/03 07:10:05;;;;;;;2.08;1.70;;;;;;;33.11;35.76;101941.87;1733260;82;21035;-50
2022/07/03 07:12:33;;;;;;;3.02;1.95;;;;;;;33.07;36.13;101941.33;1693997;84;21022;-50
2022/07/03 07:15:00;;;;;;;2.08;1.87;;;;;;;33.04;36.43;101943.45;1698113;84;21101;-50
2022/07/03 07:17:27;;;;;;;7.87;2.12;;;;;;;33.01;37.01;101945.12;1698056;84;21023;-50
2022/07/03 07:19:57;;;;;;;2.72;1.62;;;;;;;32.96;37.03;101946.88;1732229;82;21066;-50
2022/07/03 07:22:25;;;;;;;3.15;1.62;;;;;;;32.91;37.14;101946.49;1736973;81;21128;-51
2022/07/03 07:24:52;;;;;;;4.97;1.98;;;;;;;32.86;37.32;101951.47;1735634;81;21053;-50
2022/07/03 07:27:19;;;;;;;4.85;1.92;;;;;;;32.81;37.60;101946.52;1733870;81;20980;-51
2022/07/03 07:29:46;;;;;;;2.10;1.45;;;;;;;32.85;37.73;101949.27;1734991;81;21051;-54
2022/07/03 07:32:12;;;;;;;3.42;1.70;;;;;;;32.96;37.54;101945.52;1737284;82;21035;-51
2022/07/03 07:34:39;;;;;;;3.08;1.95;;;;;;;33.14;37.37;101950.49;1736479;81;20972;-50
2022/07/03 07:37:06;;;;;;;4.80;2.10;;;;;;;33.28;37.01;101946.45;1735540;81;21007;-51
2022/07/03 07:39:33;;;;;;;3.98;2.02;;;;;;;33.38;36.47;101944.05;1733407;81;21491;-52
2022/07/03 07:41:59;;;;;;;2.50;1.80;;;;;;;33.43;36.60;101945.78;1733530;81;21047;-50
2022/07/03 07:44:26;;;;;;;3.08;2.27;;;;;;;33.46;35.99;101947.33;1725891;81;21054;-49
2022/07/03 07:46:53;;;;;;;6.67;2.00;;;;;;;33.47;36.29;101942.27;1734049;82;21528;-51
2022/07/03 07:49:20;;;;;;;2.05;1.75;;;;;;;33.46;36.73;101944.14;1737372;81;21070;-51
2022/07/03 07:51:47;;;;;;;2.17;1.80;;;;;;;33.46;36.65;101936.53;1736285;81;21034;-49
2022/07/03 07:54:13;;;;;;;3.17;2.17;;;;;;;33.45;36.69;101936.17;1704301;84;21093;-52
2022/07/03 07:56:41;;;;;;;5.12;1.87;;;;;;;33.44;36.91;101936.70;1698122;84;21042;-49
2022/07/03 07:59:07;;;;;;;2.95;1.90;;;;;;;33.41;37.25;101935.63;1698257;84;21105;-52
2022/07/03 08:07:05;;;;;;;2.60;1.70;;;;;;;33.39;37.38;101936.29;1698107;84;21499;-51
2022/07/03 08:09:32;;;;;;;2.40;1.92;;;;;;;33.39;37.65;101940.83;1698360;84;21089;-50
2022/07/03 08:12:00;;;;;;;2.22;1.75;;;;;;;33.38;37.16;101935.95;1694660;84;21546;-50
2022/07/03 08:14:27;;;;;;;6.10;2.25;;;;;;;33.36;36.60;101932.56;1730618;81;21507;-49
2022/07/03 08:16:53;;;;;;;3.30;2.12;;;;;;;33.33;37.04;101939.59;1733280;81;21085;-51
2022/07/03 08:19:20;;;;;;;3.05;1.80;;;;;;;33.31;37.05;101936.20;1733531;81;21023;-49
2022/07/03 08:21:47;;;;;;;2.12;1.92;;;;;;;33.30;37.25;101935.88;1735321;81;21007;-49
2022/07/03 08:24:13;;;;;;;3.55;1.80;;;;;;;33.30;37.17;101939.92;1736600;81;21022;-50
2022/07/03 08:26:40;;;;;;;5.55;2.08;;;;;;;33.30;37.16;101937.22;1735787;81;21028;-49
2022/07/03 08:29:07;;;;;;;2.10;1.90;;;;;;;33.31;37.22;101937.55;1734277;81;21054;-52
2022/07/03 08:31:34;;;;;;;2.42;2.20;;;;;;;33.33;37.33;101933.34;1732343;81;21467;-54
2022/07/03 08:34:01;;;;;;;4.28;1.60;;;;;;;33.31;37.13;101933.50;1697055;84;21038;-49
2022/07/03 08:36:28;;;;;;;4.10;2.22;;;;;;;33.31;36.94;101929.45;1703272;84;21062;-50
2022/07/03 08:38:56;;;;;;;3.62;2.27;;;;;;;33.27;37.30;101929.42;1699925;84;21078;-49
2022/07/03 08:41:23;;;;;;;2.60;1.77;;;;;;;33.27;37.52;101932.11;1687656;84;21034;-50
2022/07/03 08:43:51;;;;;;;4.12;2.05;;;;;;;33.28;37.30;101937.02;1698417;84;21030;-51
2022/07/03 08:46:18;;;;;;;2.95;1.67;;;;;;;33.27;37.33;101930.77;1697231;84;21097;-51
2022/07/03 08:48:45;;;;;;;4.10;2.10;;;;;;;33.28;37.00;101928.43;1700970;83;21086;-48
2022/07/03 08:51:12;;;;;;;2.62;1.57;;;;;;;33.26;37.23;101933.09;1704478;83;21175;-50
2022/07/03 08:53:39;;;;;;;4.95;1.90;;;;;;;33.29;37.18;101932.81;1707862;82;21027;-51
2022/07/03 08:56:06;;;;;;;2.52;1.77;;;;;;;33.30;37.00;101933.17;1707910;83;20978;-48
2022/07/03 08:58:34;;;;;;;2.98;1.87;;;;;;;33.32;36.93;101930.31;1744681;81;21003;-50
2022/07/03 09:01:00;;;;;;;4.25;1.98;;;;;;;33.33;37.01;101931.50;1744629;81;21042;-49
2022/07/03 09:03:28;;;;;;;3.15;2.12;;;;;;;33.34;37.12;101927.82;1742040;81;21022;-51
2022/07/03 09:05:54;;;;;;;2.08;1.75;;;;;;;33.38;37.27;101927.86;1741293;81;21022;-49
2022/07/03 09:08:21;;;;;;;4.97;1.95;;;;;;;33.41;36.90;101926.19;1726240;81;21019;-49
2022/07/03 09:10:48;;;;;;;5.22;2.00;;;;;;;33.44;37.31;101927.74;1735550;81;21023;-50
2022/07/03 09:13:15;;;;;;;4.00;1.85;;;;;;;33.46;37.27;101923.90;1707899;83;21018;-49
2022/07/03 09:15:44;;;;;;;3.45;1.92;;;;;;;33.49;37.08;101933.05;1730255;81;21517;-50
2022/07/03 09:18:10;;;;;;;2.55;1.77;;;;;;;33.50;37.34;101927.16;1740364;82;21002;-50
2022/07/03 09:20:40;;;;;;;2.08;1.55;;;;;;;33.52;37.65;101936.81;1742135;81;21030;-50
2022/07/03 09:26:02;;;;;;;2.17;1.77;;;;;;;33.53;36.57;101938.48;1681251;85;21092;-49
2022/07/03 09:28:53;;;;;;;4.87;2.10;;;;;;;33.49;36.85;101938.45;1681329;85;21029;-50
2022/07/03 09:31:30;;;;;;;4.60;2.00;;;;;;;33.45;37.34;101934.33;1676868;84;21005;-52
2022/07/03 09:34:04;;;;;;;4.17;1.80;;;;;;;33.36;37.93;101931.22;1681427;85;21524;-50
2022/07/03 09:36:45;;;;;;;3.65;2.20;;;;;;;33.27;38.14;101934.81;1681270;85;21009;-48
2022/07/03 09:39:31;;;;;;;4.83;2.05;;;;;;;33.19;38.47;101932.52;1669278;85;21084;-50
2022/07/03 09:42:05;;;;;;;4.65;2.20;;;;;;;33.14;38.29;101927.56;1672621;84;21536;-51
2022/07/03 09:44:46;;;;;;;4.62;2.30;;;;;;;33.11;38.26;101923.84;1678126;85;21033;-51
2022/07/03 09:47:24;;;;;;;4.15;2.12;;;;;;;33.11;38.34;101925.19;1632099;87;21606;-50
2022/07/03 09:49:58;;;;;;;3.00;2.35;;;;;;;33.10;37.97;101919.43;1629889;88;21566;-52
2022/07/03 09:52:45;;;;;;;3.05;1.82;;;;;;;33.13;37.57;101923.19;1631511;87;21066;-49
2022/07/03 09:55:17;;;;;;;3.15;1.85;;;;;;;33.17;37.69;101920.54;1590275;90;21093;-51
2022/07/03 09:57:52;;;;;;;3.70;2.10;;;;;;;33.24;37.80;101920.78;1590332;90;21056;-51
2022/07/03 10:00:25;;;;;;;4.62;2.08;;;;;;;33.29;37.82;101919.32;1587382;90;21125;-52
2022/07/03 10:02:59;;;;;;;3.22;2.20;;;;;;;33.35;37.81;101925.95;1589880;90;21081;-51
2022/07/03 10:05:32;;;;;;;3.72;2.45;;;;;;;33.38;37.82;101930.56;1589950;90;21100;-49
2022/07/03 10:08:07;;;;;;;2.52;2.25;;;;;;;33.41;37.77;101926.19;1589881;90;21517;-51
2022/07/03 10:10:38;;;;;;;8.88;2.33;;;;;;;33.43;37.69;101924.19;1589876;90;21053;-48
2022/07/03 10:13:05;;;;;;;3.08;1.77;;;;;;;33.43;37.69;101926.89;1589997;90;21049;-49
2022/07/03 10:15:36;;;;;;;2.55;2.10;;;;;;;33.42;37.65;101919.81;1589969;90;21561;-50
2022/07/03 10:18:05;;;;;;;4.47;1.90;;;;;;;33.40;37.62;101923.16;1590123;90;21125;-50
2022/07/03 10:20:45;;;;;;;6.33;2.05;;;;;;;33.36;37.65;101917.72;1590015;90;21073;-49
2022/07/03 10:23:12;;;;;;;4.43;2.37;;;;;;;33.31;37.90;101917.32;1601824;88;21069;-49
2022/07/03 10:25:43;;;;;;;2.87;2.22;;;;;;;33.25;37.74;101920.63;1606381;88;21068;-51
2022/07/03 10:28:14;;;;;;;2.85;2.40;;;;;;;33.18;37.80;101913.30;1605469;88;21597;-49
2022/07/03 10:30:44;;;;;;;3.08;2.55;;;;;;;33.10;37.84;101916.73;1604680;88;21065;-48
2022/07/03 10:33:11;;;;;;;2.70;2.25;;;;;;;33.04;38.11;101922.73;1604494;88;21065;-49
2022/07/03 10:35:45;;;;;;;4.10;2.47;;;;;;;32.97;38.53;101917.58;1604798;88;21076;-51
2022/07/03 10:38:31;;;;;;;2.60;2.40;;;;;;;32.93;38.56;101920.72;1528757;93;21544;-49
2022/07/03 10:47:05;;;;;;;3.62;2.27;;;;;;;32.75;38.93;101913.90;1474096;96;21113;-51
2022/07/03 10:49:32;;;;;;;2.77;2.20;;;;;;;32.74;38.92;101910.88;1479820;96;21167;-49
2022/07/03 10:52:01;;;;;;;6.20;2.42;;;;;;;32.74;39.31;101906.34;1462664;95;21189;-51
2022/07/03 10:54:33;;;;;;;3.67;2.50;;;;;;;32.77;39.20;101914.60;1496746;95;21088;-51
2022/07/03 10:57:04;;;;;;;2.70;2.45;;;;;;;32.80;39.25;101908.92;1491978;95;21100;-49
2022/07/03 10:59:43;;;;;;;2.92;2.00;;;;;;;32.85;39.21;101912.04;1469458;97;21079;-52
2022/07/03 11:02:33;;;;;;;6.30;2.47;;;;;;;32.88;39.45;101909.03;1469713;97;21147;-49
2022/07/03 11:05:07;;;;;;;3.87;2.50;;;;;;;32.93;39.40;101902.70;1469894;97;21738;-52
2022/07/03 11:07:53;;;;;;;4.30;2.30;;;;;;;32.94;38.76;101903.03;1469816;97;21088;-54
2022/07/03 11:10:29;;;;;;;2.87;2.20;;;;;;;32.93;38.96;101909.44;1461885;97;21134;-51
2022/07/03 11:13:11;;;;;;;2.75;2.35;;;;;;;32.89;39.16;101901.30;1467341;97;21110;-48
2022/07/03 11:15:42;;;;;;;5.75;2.72;;;;;;;32.85;39.15;101901.25;1469805;97;21143;-49
2022/07/03 11:18:21;;;;;;;6.75;2.95;;;;;;;32.81;38.83;101907.91;1462152;97;21131;-51
2022/07/03 11:20:57;;;;;;;6.00;2.98;;;;;;;32.79;38.83;101897.78;1470129;97;21118;-52
2022/07/03 11:23:31;;;;;;;2.52;2.33;;;;;;;32.78;39.14;101889.36;1449488;98;21167;-50
2022/07/03 11:26:04;;;;;;;3.27;2.58;;;;;;;32.80;39.21;101887.36;1448588;98;21590;-50
2022/07/03 11:28:37;;;;;;;4.97;2.60;;;;;;;32.82;39.11;101882.67;1447865;98;21534;-52
2022/07/03 11:31:15;;;;;;;3.65;2.50;;;;;;;32.82;39.23;101887.56;1449499;98;21113;-50
2022/07/03 11:33:57;;;;;;;8.48;2.22;;;;;;;32.79;38.89;101882.95;1442236;98;21705;-49
2022/07/03 11:36:32;;;;;;;5.55;2.40;;;;;;;32.76;39.09;101883.27;1468689;96;21129;-50
2022/07/03 11:39:05;;;;;;;3.35;2.45;;;;;;;32.72;39.22;101879.17;1506706;94;21056;-50
2022/07/03 11:41:41;;;;;;;3.00;2.47;;;;;;;32.69;39.42;101876.77;1557044;89;21001;-51
2022/07/03 11:44:09;;;;;;;3.12;2.55;;;;;;;32.69;39.83;101874.06;1598967;89;21156;-49
2022/07/03 11:46:38;;;;;;;8.98;3.00;;;;;;;32.71;39.41;101870.23;1599116;88;21566;-48
2022/07/03 11:49:13;;;;;;;4.65;3.17;;;;;;;32.74;39.14;101871.78;1591503;89;21041;-48
2022/07/03 11:51:55;;;;;;;5.37;2.45;;;;;;;32.74;39.02;101869.09;1589565;88;21077;-49
2022/07/03 11:54:22;;;;;;;3.30;2.70;;;;;;;32.68;38.73;101862.46;1588551;90;21075;-50
2022/07/03 11:56:49;;;;;;;3.30;2.55;;;;;;;32.64;38.88;101858.86;1610889;88;21561;-49
2022/07/03 11:59:17;;;;;;;2.40;2.20;;;;;;;32.61;38.72;101863.19;1617144;87;21050;-49
2022/07/03 12:01:44;;;;;;;3.55;2.37;;;;;;;32.59;38.71;101863.83;1723676;80;21015;-50